sensor_id;sensor_type;location;lat;lon;timestamp;temperature;humidity
15700;DHT22;7950;42.744;23.174;2023-02-01T00:00:31;1.10;99.90
15700;DHT22;7950;42.744;23.174;2023-02-01T00:03:01;1.00;99.90
15700;DHT22;7950;42.744;23.174;2023-02-01T00:05:31;1.00;99.90
15700;DHT22;7950;42.744;23.174;2023-02-01T00:07:59;1.00;99.90
15700;DHT22;7950;42.744;23.174;2023-02-01T00:10:28;1.10;99.90
15700;DHT22;7950;42.744;23.174;2023-02-01T00:12:56;1.00;99.90
15700;DHT22;7950;42.744;23.174;2023-02-01T00:15:25;1.10;99.90
15700;DHT22;7950;42.744;23.174;2023-02-01T00:17:54;1.00;99.90
15700;DHT22;7950;42.744;23.174;2023-02-01T00:20:22;1.00;99.90
15700;DHT22;7950;42.744;23.174;2023-02-01T00:22:52;1.00;99.90
15700;DHT22;7950;42.744;23.174;2023-02-01T00:25:21;1.00;99.90
15700;DHT22;7950;42.744;23.174;2023-02-01T00:27:50;0.90;99.90
15700;DHT22;7950;42.744;23.174;2023-02-01T00:30:23;0.90;99.90
15700;DHT22;7950;42.744;23.174;2023-02-01T00:32:52;1.00;99.90
15700;DHT22;7950;42.744;23.174;2023-02-01T00:35:20;0.90;99.90
15700;DHT22;7950;42.744;23.174;2023-02-01T00:37:49;0.90;99.90
15700;DHT22;7950;42.744;23.174;2023-02-01T00:40:19;0.90;99.90
15700;DHT22;7950;42.744;23.174;2023-02-01T00:42:48;0.80;99.90
15700;DHT22;7950;42.744;23.174;2023-02-01T00:45:16;0.80;99.90
15700;DHT22;7950;42.744;23.174;2023-02-01T00:47:45;0.70;99.90
15700;DHT22;7950;42.744;23.174;2023-02-01T00:50:14;0.70;99.90
15700;DHT22;7950;42.744;23.174;2023-02-01T00:52:43;0.60;99.90
15700;DHT22;7950;42.744;23.174;2023-02-01T00:55:11;0.60;99.90
15700;DHT22;7950;42.744;23.174;2023-02-01T00:57:41;0.60;99.90
15700;DHT22;7950;42.744;23.174;2023-02-01T01:00:10;0.50;99.90
15700;DHT22;7950;42.744;23.174;2023-02-01T01:02:40;0.50;99.90
15700;DHT22;7950;42.744;23.174;2023-02-01T01:05:09;0.50;99.90
15700;DHT22;7950;42.744;23.174;2023-02-01T01:07:37;0.50;99.90
15700;DHT22;7950;42.744;23.174;2023-02-01T01:10:08;0.50;99.90
15700;DHT22;7950;42.744;23.174;2023-02-01T01:13:04;0.50;99.90
15700;DHT22;7950;42.744;23.174;2023-02-01T01:15:35;0.50;99.90
15700;DHT22;7950;42.744;23.174;2023-02-01T01:18:04;0.50;99.90
15700;DHT22;7950;42.744;23.174;2023-02-01T01:20:35;0.50;99.90
15700;DHT22;7950;42.744;23.174;2023-02-01T01:23:06;0.50;99.90
15700;DHT22;7950;42.744;23.174;2023-02-01T01:25:37;0.50;99.90
15700;DHT22;7950;42.744;23.174;2023-02-01T01:28:08;0.50;99.90
15700;DHT22;7950;42.744;23.174;2023-02-01T01:30:36;0.50;99.90
15700;DHT22;7950;42.744;23.174;2023-02-01T01:33:05;0.50;99.90
15700;DHT22;7950;42.744;23.174;2023-02-01T01:35:34;0.60;99.90
15700;DHT22;7950;42.744;23.174;2023-02-01T01:38:10;0.60;99.90
15700;DHT22;7950;42.744;23.174;2023-02-01T01:40:39;0.60;99.90
15700;DHT22;7950;42.744;23.174;2023-02-01T01:43:14;0.60;99.90
15700;DHT22;7950;42.744;23.174;2023-02-01T01:45:43;0.60;99.90
15700;DHT22;7950;42.744;23.174;2023-02-01T01:48:14;0.50;99.90
15700;DHT22;7950;42.744;23.174;2023-02-01T01:50:50;0.50;99.90
15700;DHT22;7950;42.744;23.174;2023-02-01T01:53:40;0.50;99.90
15700;DHT22;7950;42.744;23.174;2023-02-01T01:56:13;0.50;99.90
15700;DHT22;7950;42.744;23.174;2023-02-01T01:58:43;0.50;99.90
15700;DHT22;7950;42.744;23.174;2023-02-01T02:01:12;0.60;99.90
15700;DHT22;7950;42.744;23.174;2023-02-01T02:03:43;0.60;99.90
15700;DHT22;7950;42.744;23.174;2023-02-01T02:06:22;0.60;99.90
15700;DHT22;7950;42.744;23.174;2023-02-01T02:09:23;0.50;99.90
15700;DHT22;7950;42.744;23.174;2023-02-01T02:11:52;0.40;99.90
15700;DHT22;7950;42.744;23.174;2023-02-01T02:14:23;0.40;99.90
15700;DHT22;7950;42.744;23.174;2023-02-01T02:17:03;0.30;99.90
15700;DHT22;7950;42.744;23.174;2023-02-01T02:23:34;0.20;99.90
15700;DHT22;7950;42.744;23.174;2023-02-01T02:30:02;0.30;99.90
15700;DHT22;7950;42.744;23.174;2023-02-01T02:33:24;0.20;99.90
15700;DHT22;7950;42.744;23.174;2023-02-01T02:36:17;0.20;99.90
15700;DHT22;7950;42.744;23.174;2023-02-01T02:38:56;0.20;99.90
15700;DHT22;7950;42.744;23.174;2023-02-01T02:41:40;0.20;99.90
15700;DHT22;7950;42.744;23.174;2023-02-01T02:44:42;0.20;99.90
15700;DHT22;7950;42.744;23.174;2023-02-01T02:47:38;0.10;99.90
15700;DHT22;7950;42.744;23.174;2023-02-01T02:50:22;0.10;99.90
15700;DHT22;7950;42.744;23.174;2023-02-01T02:53:16;0.00;99.90
15700;DHT22;7950;42.744;23.174;2023-02-01T02:56:06;0.00;99.90
15700;DHT22;7950;42.744;23.174;2023-02-01T02:58:55;0.10;99.90
15700;DHT22;7950;42.744;23.174;2023-02-01T03:01:43;0.10;99.90
15700;DHT22;7950;42.744;23.174;2023-02-01T03:04:29;0.00;99.90
15700;DHT22;7950;42.744;23.174;2023-02-01T03:07:12;0.10;99.90
15700;DHT22;7950;42.744;23.174;2023-02-01T03:09:45;0.00;99.90
15700;DHT22;7950;42.744;23.174;2023-02-01T03:12:17;0.10;99.90
15700;DHT22;7950;42.744;23.174;2023-02-01T03:15:24;0.10;99.90
15700;DHT22;7950;42.744;23.174;2023-02-01T03:17:58;0.20;99.90
15700;DHT22;7950;42.744;23.174;2023-02-01T03:20:30;0.20;99.90
15700;DHT22;7950;42.744;23.174;2023-02-01T03:23:02;0.20;99.90
15700;DHT22;7950;42.744;23.174;2023-02-01T03:25:34;0.10;99.90
15700;DHT22;7950;42.744;23.174;2023-02-01T03:28:07;0.10;99.90
15700;DHT22;7950;42.744;23.174;2023-02-01T03:30:38;0.10;99.90
15700;DHT22;7950;42.744;23.174;2023-02-01T03:33:13;0.10;99.90
15700;DHT22;7950;42.744;23.174;2023-02-01T03:36:28;0.10;99.90
15700;DHT22;7950;42.744;23.174;2023-02-01T03:39:30;0.10;99.90
15700;DHT22;7950;42.744;23.174;2023-02-01T03:42:27;0.10;99.90
15700;DHT22;7950;42.744;23.174;2023-02-01T03:45:04;0.20;99.90
15700;DHT22;7950;42.744;23.174;2023-02-01T03:48:01;0.30;99.90
15700;DHT22;7950;42.744;23.174;2023-02-01T03:50:33;0.20;99.90
15700;DHT22;7950;42.744;23.174;2023-02-01T03:53:08;0.20;99.90
15700;DHT22;7950;42.744;23.174;2023-02-01T03:55:42;0.10;99.90
15700;DHT22;7950;42.744;23.174;2023-02-01T03:58:15;0.10;99.90
15700;DHT22;7950;42.744;23.174;2023-02-01T04:00:50;0.20;99.90
15700;DHT22;7950;42.744;23.174;2023-02-01T04:03:20;0.20;99.90
15700;DHT22;7950;42.744;23.174;2023-02-01T04:05:49;0.20;99.90
15700;DHT22;7950;42.744;23.174;2023-02-01T04:08:19;0.30;99.90
15700;DHT22;7950;42.744;23.174;2023-02-01T04:10:50;0.30;99.90
15700;DHT22;7950;42.744;23.174;2023-02-01T04:13:25;0.40;99.90
15700;DHT22;7950;42.744;23.174;2023-02-01T04:15:54;0.40;99.90
15700;DHT22;7950;42.744;23.174;2023-02-01T04:18:22;0.50;99.90
15700;DHT22;7950;42.744;23.174;2023-02-01T04:20:51;0.60;99.90
15700;DHT22;7950;42.744;23.174;2023-02-01T04:23:19;0.60;99.90
15700;DHT22;7950;42.744;23.174;2023-02-01T04:25:50;0.60;99.90
15700;DHT22;7950;42.744;23.174;2023-02-01T04:28:21;0.60;99.90
15700;DHT22;7950;42.744;23.174;2023-02-01T04:30:50;0.60;99.90
15700;DHT22;7950;42.744;23.174;2023-02-01T04:33:18;0.60;99.90
15700;DHT22;7950;42.744;23.174;2023-02-01T04:35:47;0.60;99.90
15700;DHT22;7950;42.744;23.174;2023-02-01T04:38:15;0.60;99.90
15700;DHT22;7950;42.744;23.174;2023-02-01T04:40:47;0.60;99.90
15700;DHT22;7950;42.744;23.174;2023-02-01T04:43:27;0.60;99.90
15700;DHT22;7950;42.744;23.174;2023-02-01T04:45:56;0.70;99.90
15700;DHT22;7950;42.744;23.174;2023-02-01T04:48:24;0.70;99.90
15700;DHT22;7950;42.744;23.174;2023-02-01T04:50:53;0.80;99.90
15700;DHT22;7950;42.744;23.174;2023-02-01T04:53:21;0.80;99.90
15700;DHT22;7950;42.744;23.174;2023-02-01T04:55:50;0.90;99.90
15700;DHT22;7950;42.744;23.174;2023-02-01T04:58:18;0.90;99.90
15700;DHT22;7950;42.744;23.174;2023-02-01T05:00:48;0.90;99.90
15700;DHT22;7950;42.744;23.174;2023-02-01T05:03:18;0.90;99.90
15700;DHT22;7950;42.744;23.174;2023-02-01T05:05:47;1.00;99.90
15700;DHT22;7950;42.744;23.174;2023-02-01T05:08:16;1.00;99.90
15700;DHT22;7950;42.744;23.174;2023-02-01T05:10:45;0.90;99.90
15700;DHT22;7950;42.744;23.174;2023-02-01T05:13:13;0.90;99.90
15700;DHT22;7950;42.744;23.174;2023-02-01T05:16:00;0.90;99.90
15700;DHT22;7950;42.744;23.174;2023-02-01T05:18:29;0.90;99.90
15700;DHT22;7950;42.744;23.174;2023-02-01T05:20:57;0.90;99.90
15700;DHT22;7950;42.744;23.174;2023-02-01T05:23:26;1.00;99.90
15700;DHT22;7950;42.744;23.174;2023-02-01T05:25:58;0.90;99.90
15700;DHT22;7950;42.744;23.174;2023-02-01T05:28:28;0.90;99.90
15700;DHT22;7950;42.744;23.174;2023-02-01T05:31:23;0.90;99.90
15700;DHT22;7950;42.744;23.174;2023-02-01T05:33:51;1.00;99.90
15700;DHT22;7950;42.744;23.174;2023-02-01T05:36:20;1.00;99.90
15700;DHT22;7950;42.744;23.174;2023-02-01T05:38:55;1.00;99.90
15700;DHT22;7950;42.744;23.174;2023-02-01T05:41:23;1.00;99.90
15700;DHT22;7950;42.744;23.174;2023-02-01T05:43:52;1.10;99.90
15700;DHT22;7950;42.744;23.174;2023-02-01T05:46:20;1.10;99.90
15700;DHT22;7950;42.744;23.174;2023-02-01T05:49:01;1.20;99.90
15700;DHT22;7950;42.744;23.174;2023-02-01T05:51:30;1.20;99.90
15700;DHT22;7950;42.744;23.174;2023-02-01T05:53:58;1.30;99.90
15700;DHT22;7950;42.744;23.174;2023-02-01T05:56:27;1.30;99.90
15700;DHT22;7950;42.744;23.174;2023-02-01T05:59:22;1.30;99.90
15700;DHT22;7950;42.744;23.174;2023-02-01T06:01:51;1.40;99.90
15700;DHT22;7950;42.744;23.174;2023-02-01T06:04:20;1.40;99.90
15700;DHT22;7950;42.744;23.174;2023-02-01T06:06:48;1.40;99.90
15700;DHT22;7950;42.744;23.174;2023-02-01T06:09:18;1.40;99.90
15700;DHT22;7950;42.744;23.174;2023-02-01T06:11:46;1.40;99.90
15700;DHT22;7950;42.744;23.174;2023-02-01T06:14:15;1.40;99.90
15700;DHT22;7950;42.744;23.174;2023-02-01T06:16:44;1.50;99.90
15700;DHT22;7950;42.744;23.174;2023-02-01T06:19:15;1.60;99.90
15700;DHT22;7950;42.744;23.174;2023-02-01T06:21:44;1.60;99.90
15700;DHT22;7950;42.744;23.174;2023-02-01T06:24:12;1.60;99.90
15700;DHT22;7950;42.744;23.174;2023-02-01T06:26:41;1.60;99.90
15700;DHT22;7950;42.744;23.174;2023-02-01T06:29:10;1.60;99.90
15700;DHT22;7950;42.744;23.174;2023-02-01T06:31:38;1.60;99.90
15700;DHT22;7950;42.744;23.174;2023-02-01T06:34:09;1.70;99.90
15700;DHT22;7950;42.744;23.174;2023-02-01T06:36:39;1.60;99.90
15700;DHT22;7950;42.744;23.174;2023-02-01T06:39:08;1.60;99.90
15700;DHT22;7950;42.744;23.174;2023-02-01T06:42:01;1.60;99.90
15700;DHT22;7950;42.744;23.174;2023-02-01T06:44:30;1.70;99.90
15700;DHT22;7950;42.744;23.174;2023-02-01T06:46:58;1.70;99.90
15700;DHT22;7950;42.744;23.174;2023-02-01T06:49:58;1.60;99.90
15700;DHT22;7950;42.744;23.174;2023-02-01T06:52:28;1.60;99.90
15700;DHT22;7950;42.744;23.174;2023-02-01T06:54:56;1.60;99.90
15700;DHT22;7950;42.744;23.174;2023-02-01T06:57:25;1.60;99.90
15700;DHT22;7950;42.744;23.174;2023-02-01T06:59:57;1.60;99.90
15700;DHT22;7950;42.744;23.174;2023-02-01T07:02:26;1.60;99.90
15700;DHT22;7950;42.744;23.174;2023-02-01T07:04:54;1.60;99.90
15700;DHT22;7950;42.744;23.174;2023-02-01T07:07:23;1.70;99.90
15700;DHT22;7950;42.744;23.174;2023-02-01T07:09:53;1.60;99.90
15700;DHT22;7950;42.744;23.174;2023-02-01T07:12:21;1.60;99.90
15700;DHT22;7950;42.744;23.174;2023-02-01T07:14:50;1.60;99.90
15700;DHT22;7950;42.744;23.174;2023-02-01T07:17:18;1.70;99.90
15700;DHT22;7950;42.744;23.174;2023-02-01T07:19:46;1.80;99.90
15700;DHT22;7950;42.744;23.174;2023-02-01T07:22:16;1.90;99.90
15700;DHT22;7950;42.744;23.174;2023-02-01T07:24:44;1.90;99.90
15700;DHT22;7950;42.744;23.174;2023-02-01T07:27:40;1.90;99.90
15700;DHT22;7950;42.744;23.174;2023-02-01T07:30:10;1.90;99.90
15700;DHT22;7950;42.744;23.174;2023-02-01T07:32:39;1.90;99.90
15700;DHT22;7950;42.744;23.174;2023-02-01T07:35:08;1.90;99.90
15700;DHT22;7950;42.744;23.174;2023-02-01T07:37:37;2.00;99.90
15700;DHT22;7950;42.744;23.174;2023-02-01T07:40:06;2.00;99.90
15700;DHT22;7950;42.744;23.174;2023-02-01T07:42:36;2.00;99.90
15700;DHT22;7950;42.744;23.174;2023-02-01T07:45:08;2.00;99.90
15700;DHT22;7950;42.744;23.174;2023-02-01T07:47:47;2.10;99.90
15700;DHT22;7950;42.744;23.174;2023-02-01T07:50:16;2.20;99.90
15700;DHT22;7950;42.744;23.174;2023-02-01T07:52:45;2.10;99.90
15700;DHT22;7950;42.744;23.174;2023-02-01T07:55:13;2.20;99.90
15700;DHT22;7950;42.744;23.174;2023-02-01T07:57:42;2.20;99.90
15700;DHT22;7950;42.744;23.174;2023-02-01T08:00:13;2.30;99.90
15700;DHT22;7950;42.744;23.174;2023-02-01T08:02:59;2.30;99.90
15700;DHT22;7950;42.744;23.174;2023-02-01T08:05:28;2.40;99.90
15700;DHT22;7950;42.744;23.174;2023-02-01T08:07:57;2.40;99.90
15700;DHT22;7950;42.744;23.174;2023-02-01T08:10:25;2.40;99.90
15700;DHT22;7950;42.744;23.174;2023-02-01T08:12:58;2.40;99.90
15700;DHT22;7950;42.744;23.174;2023-02-01T08:15:29;2.50;99.90
15700;DHT22;7950;42.744;23.174;2023-02-01T08:17:58;2.50;99.90
15700;DHT22;7950;42.744;23.174;2023-02-01T08:20:29;2.60;99.90
15700;DHT22;7950;42.744;23.174;2023-02-01T08:22:58;2.70;99.90
15700;DHT22;7950;42.744;23.174;2023-02-01T08:25:26;2.70;99.90
15700;DHT22;7950;42.744;23.174;2023-02-01T08:27:55;2.80;99.90
15700;DHT22;7950;42.744;23.174;2023-02-01T08:30:50;2.80;99.90
15700;DHT22;7950;42.744;23.174;2023-02-01T08:33:18;2.80;99.90
15700;DHT22;7950;42.744;23.174;2023-02-01T08:35:47;2.90;99.90
15700;DHT22;7950;42.744;23.174;2023-02-01T08:38:15;2.90;99.90
15700;DHT22;7950;42.744;23.174;2023-02-01T08:40:44;3.00;99.90
15700;DHT22;7950;42.744;23.174;2023-02-01T08:43:16;3.00;99.90
15700;DHT22;7950;42.744;23.174;2023-02-01T08:46:11;3.10;99.90
15700;DHT22;7950;42.744;23.174;2023-02-01T08:48:41;3.30;99.90
15700;DHT22;7950;42.744;23.174;2023-02-01T08:51:11;3.70;99.90
15700;DHT22;7950;42.744;23.174;2023-02-01T08:53:41;4.20;99.90
15700;DHT22;7950;42.744;23.174;2023-02-01T08:56:11;4.60;99.90
15700;DHT22;7950;42.744;23.174;2023-02-01T08:58:42;4.90;99.90
15700;DHT22;7950;42.744;23.174;2023-02-01T09:01:13;5.20;99.90
15700;DHT22;7950;42.744;23.174;2023-02-01T09:03:44;5.50;99.90
15700;DHT22;7950;42.744;23.174;2023-02-01T09:06:14;5.70;99.90
15700;DHT22;7950;42.744;23.174;2023-02-01T09:08:43;6.00;99.90
15700;DHT22;7950;42.744;23.174;2023-02-01T09:11:13;6.10;99.90
15700;DHT22;7950;42.744;23.174;2023-02-01T09:13:44;6.00;99.90
15700;DHT22;7950;42.744;23.174;2023-02-01T09:16:14;6.10;99.90
15700;DHT22;7950;42.744;23.174;2023-02-01T09:18:43;6.40;99.90
15700;DHT22;7950;42.744;23.174;2023-02-01T09:21:32;6.60;99.90
15700;DHT22;7950;42.744;23.174;2023-02-01T09:24:01;6.80;99.90
15700;DHT22;7950;42.744;23.174;2023-02-01T09:26:31;7.10;99.90
15700;DHT22;7950;42.744;23.174;2023-02-01T09:29:00;7.40;99.90
15700;DHT22;7950;42.744;23.174;2023-02-01T09:31:31;7.30;98.20
15700;DHT22;7950;42.744;23.174;2023-02-01T09:34:00;7.20;99.10
15700;DHT22;7950;42.744;23.174;2023-02-01T09:36:29;6.90;98.20
15700;DHT22;7950;42.744;23.174;2023-02-01T09:38:58;6.50;97.40
15700;DHT22;7950;42.744;23.174;2023-02-01T09:41:35;6.20;99.50
15700;DHT22;7950;42.744;23.174;2023-02-01T09:44:31;6.00;99.90
15700;DHT22;7950;42.744;23.174;2023-02-01T09:47:17;5.80;99.90
15700;DHT22;7950;42.744;23.174;2023-02-01T09:49:51;5.80;99.90
15700;DHT22;7950;42.744;23.174;2023-02-01T09:52:29;6.00;99.90
15700;DHT22;7950;42.744;23.174;2023-02-01T09:55:30;6.20;99.90
15700;DHT22;7950;42.744;23.174;2023-02-01T09:58:09;6.40;99.90
15700;DHT22;7950;42.744;23.174;2023-02-01T10:00:51;6.40;99.90
15700;DHT22;7950;42.744;23.174;2023-02-01T10:03:24;6.60;99.90
15700;DHT22;7950;42.744;23.174;2023-02-01T10:06:06;6.80;98.20
15700;DHT22;7950;42.744;23.174;2023-02-01T10:09:38;7.00;99.90
15700;DHT22;7950;42.744;23.174;2023-02-01T10:12:37;7.30;96.80
15700;DHT22;7950;42.744;23.174;2023-02-01T10:15:39;7.30;97.40
15700;DHT22;7950;42.744;23.174;2023-02-01T10:18:51;7.30;96.40
15700;DHT22;7950;42.744;23.174;2023-02-01T10:22:00;7.20;96.60
15700;DHT22;7950;42.744;23.174;2023-02-01T10:24:38;7.20;96.70
15700;DHT22;7950;42.744;23.174;2023-02-01T10:27:17;7.30;97.60
15700;DHT22;7950;42.744;23.174;2023-02-01T10:29:51;7.10;96.40
15700;DHT22;7950;42.744;23.174;2023-02-01T10:32:24;7.00;97.10
15700;DHT22;7950;42.744;23.174;2023-02-01T10:35:22;7.10;97.10
15700;DHT22;7950;42.744;23.174;2023-02-01T10:37:58;7.30;97.10
15700;DHT22;7950;42.744;23.174;2023-02-01T10:40:29;7.20;97.40
15700;DHT22;7950;42.744;23.174;2023-02-01T10:43:00;7.10;97.50
15700;DHT22;7950;42.744;23.174;2023-02-01T10:45:31;6.90;97.70
15700;DHT22;7950;42.744;23.174;2023-02-01T10:48:02;7.00;99.90
15700;DHT22;7950;42.744;23.174;2023-02-01T10:50:37;7.10;99.40
15700;DHT22;7950;42.744;23.174;2023-02-01T10:53:12;7.10;98.50
15700;DHT22;7950;42.744;23.174;2023-02-01T10:55:49;7.10;98.40
15700;DHT22;7950;42.744;23.174;2023-02-01T10:58:25;7.10;96.40
15700;DHT22;7950;42.744;23.174;2023-02-01T11:00:57;7.10;95.70
15700;DHT22;7950;42.744;23.174;2023-02-01T11:03:40;7.00;97.90
15700;DHT22;7950;42.744;23.174;2023-02-01T11:06:26;7.00;96.70
15700;DHT22;7950;42.744;23.174;2023-02-01T11:08:58;6.80;96.80
15700;DHT22;7950;42.744;23.174;2023-02-01T11:11:28;6.50;98.40
15700;DHT22;7950;42.744;23.174;2023-02-01T11:13:59;6.20;99.60
15700;DHT22;7950;42.744;23.174;2023-02-01T11:16:31;6.10;99.90
15700;DHT22;7950;42.744;23.174;2023-02-01T11:19:03;6.10;99.90
15700;DHT22;7950;42.744;23.174;2023-02-01T11:21:34;6.30;99.90
15700;DHT22;7950;42.744;23.174;2023-02-01T11:24:31;6.40;99.90
15700;DHT22;7950;42.744;23.174;2023-02-01T11:27:19;6.50;99.90
15700;DHT22;7950;42.744;23.174;2023-02-01T11:29:56;6.60;99.90
15700;DHT22;7950;42.744;23.174;2023-02-01T11:32:45;6.60;98.70
15700;DHT22;7950;42.744;23.174;2023-02-01T11:35:18;6.60;99.80
15700;DHT22;7950;42.744;23.174;2023-02-01T11:37:54;6.70;98.40
15700;DHT22;7950;42.744;23.174;2023-02-01T11:40:29;6.70;97.90
15700;DHT22;7950;42.744;23.174;2023-02-01T11:43:08;6.60;97.90
15700;DHT22;7950;42.744;23.174;2023-02-01T11:45:55;6.60;98.00
15700;DHT22;7950;42.744;23.174;2023-02-01T11:48:28;6.80;99.70
15700;DHT22;7950;42.744;23.174;2023-02-01T11:51:14;6.80;96.50
15700;DHT22;7950;42.744;23.174;2023-02-01T11:54:08;6.80;98.20
15700;DHT22;7950;42.744;23.174;2023-02-01T11:56:54;6.80;96.50
15700;DHT22;7950;42.744;23.174;2023-02-01T11:59:46;6.90;98.20
15700;DHT22;7950;42.744;23.174;2023-02-01T12:05:52;6.90;96.70
15700;DHT22;7950;42.744;23.174;2023-02-01T12:08:38;6.80;98.00
15700;DHT22;7950;42.744;23.174;2023-02-01T12:11:30;6.70;99.00
15700;DHT22;7950;42.744;23.174;2023-02-01T12:14:33;6.70;99.00
15700;DHT22;7950;42.744;23.174;2023-02-01T12:17:50;6.70;98.30
15700;DHT22;7950;42.744;23.174;2023-02-01T12:20:49;6.60;99.90
15700;DHT22;7950;42.744;23.174;2023-02-01T12:26:56;6.60;99.50
15700;DHT22;7950;42.744;23.174;2023-02-01T12:29:53;6.60;99.90
15700;DHT22;7950;42.744;23.174;2023-02-01T12:32:40;6.80;99.90
15700;DHT22;7950;42.744;23.174;2023-02-01T12:35:36;6.80;97.60
15700;DHT22;7950;42.744;23.174;2023-02-01T12:38:24;6.80;98.30
15700;DHT22;7950;42.744;23.174;2023-02-01T12:41:20;6.90;99.90
15700;DHT22;7950;42.744;23.174;2023-02-01T12:44:40;7.00;98.30
15700;DHT22;7950;42.744;23.174;2023-02-01T12:47:18;7.10;98.80
15700;DHT22;7950;42.744;23.174;2023-02-01T12:49:55;7.10;98.10
15700;DHT22;7950;42.744;23.174;2023-02-01T12:52:35;7.10;97.20
15700;DHT22;7950;42.744;23.174;2023-02-01T12:55:17;7.10;97.50
15700;DHT22;7950;42.744;23.174;2023-02-01T12:57:52;7.20;98.80
15700;DHT22;7950;42.744;23.174;2023-02-01T13:00:29;7.30;98.50
15700;DHT22;7950;42.744;23.174;2023-02-01T13:03:05;7.20;96.90
15700;DHT22;7950;42.744;23.174;2023-02-01T13:05:48;7.20;95.00
15700;DHT22;7950;42.744;23.174;2023-02-01T13:08:24;7.10;97.00
15700;DHT22;7950;42.744;23.174;2023-02-01T13:11:00;7.10;96.60
15700;DHT22;7950;42.744;23.174;2023-02-01T13:13:42;7.00;97.00
15700;DHT22;7950;42.744;23.174;2023-02-01T13:16:19;7.00;97.80
15700;DHT22;7950;42.744;23.174;2023-02-01T13:19:00;7.10;98.00
15700;DHT22;7950;42.744;23.174;2023-02-01T13:21:36;7.00;98.20
15700;DHT22;7950;42.744;23.174;2023-02-01T13:24:26;7.10;97.50
15700;DHT22;7950;42.744;23.174;2023-02-01T13:27:01;7.10;97.50
15700;DHT22;7950;42.744;23.174;2023-02-01T13:29:31;7.00;97.80
15700;DHT22;7950;42.744;23.174;2023-02-01T13:32:22;7.00;98.20
15700;DHT22;7950;42.744;23.174;2023-02-01T13:35:48;7.00;98.50
15700;DHT22;7950;42.744;23.174;2023-02-01T13:41:52;6.90;99.00
15700;DHT22;7950;42.744;23.174;2023-02-01T13:44:28;6.90;97.80
15700;DHT22;7950;42.744;23.174;2023-02-01T13:47:02;6.80;96.60
15700;DHT22;7950;42.744;23.174;2023-02-01T13:49:40;6.80;98.20
15700;DHT22;7950;42.744;23.174;2023-02-01T13:52:24;6.80;98.00
15700;DHT22;7950;42.744;23.174;2023-02-01T13:55:13;6.80;97.70
15700;DHT22;7950;42.744;23.174;2023-02-01T13:58:03;6.90;97.00
15700;DHT22;7950;42.744;23.174;2023-02-01T14:00:35;6.80;97.50
15700;DHT22;7950;42.744;23.174;2023-02-01T14:03:43;6.80;98.40
15700;DHT22;7950;42.744;23.174;2023-02-01T14:09:32;6.80;96.60
15700;DHT22;7950;42.744;23.174;2023-02-01T14:15:33;7.00;98.70
15700;DHT22;7950;42.744;23.174;2023-02-01T14:18:02;7.10;99.60
15700;DHT22;7950;42.744;23.174;2023-02-01T14:21:19;7.10;97.00
15700;DHT22;7950;42.744;23.174;2023-02-01T14:23:57;7.10;96.20
15700;DHT22;7950;42.744;23.174;2023-02-01T14:26:41;7.00;96.50
15700;DHT22;7950;42.744;23.174;2023-02-01T14:29:34;7.00;97.00
15700;DHT22;7950;42.744;23.174;2023-02-01T14:32:06;6.90;96.50
15700;DHT22;7950;42.744;23.174;2023-02-01T14:35:24;6.90;96.40
15700;DHT22;7950;42.744;23.174;2023-02-01T14:38:00;6.80;96.40
15700;DHT22;7950;42.744;23.174;2023-02-01T14:40:31;6.70;97.60
15700;DHT22;7950;42.744;23.174;2023-02-01T14:43:01;6.50;98.90
15700;DHT22;7950;42.744;23.174;2023-02-01T14:46:03;6.40;99.70
15700;DHT22;7950;42.744;23.174;2023-02-01T14:48:44;6.20;99.70
15700;DHT22;7950;42.744;23.174;2023-02-01T14:51:16;6.00;99.90
15700;DHT22;7950;42.744;23.174;2023-02-01T14:53:50;5.90;99.90
15700;DHT22;7950;42.744;23.174;2023-02-01T14:56:19;5.70;99.90
15700;DHT22;7950;42.744;23.174;2023-02-01T14:58:53;5.60;99.90
15700;DHT22;7950;42.744;23.174;2023-02-01T15:01:50;5.50;99.90
15700;DHT22;7950;42.744;23.174;2023-02-01T15:04:25;5.40;99.90
15700;DHT22;7950;42.744;23.174;2023-02-01T15:06:57;5.30;99.90
15700;DHT22;7950;42.744;23.174;2023-02-01T15:09:44;5.30;99.90
15700;DHT22;7950;42.744;23.174;2023-02-01T15:12:40;5.30;99.90
15700;DHT22;7950;42.744;23.174;2023-02-01T15:15:14;5.20;99.90
15700;DHT22;7950;42.744;23.174;2023-02-01T15:17:55;5.20;99.90
15700;DHT22;7950;42.744;23.174;2023-02-01T15:20:26;5.20;99.90
15700;DHT22;7950;42.744;23.174;2023-02-01T15:22:59;5.20;99.90
15700;DHT22;7950;42.744;23.174;2023-02-01T15:25:32;5.20;99.90
15700;DHT22;7950;42.744;23.174;2023-02-01T15:28:03;5.20;99.90
15700;DHT22;7950;42.744;23.174;2023-02-01T15:30:34;5.20;99.90
15700;DHT22;7950;42.744;23.174;2023-02-01T15:33:06;5.10;99.90
15700;DHT22;7950;42.744;23.174;2023-02-01T15:35:41;5.00;99.90
15700;DHT22;7950;42.744;23.174;2023-02-01T15:38:38;4.90;99.90
15700;DHT22;7950;42.744;23.174;2023-02-01T15:41:14;4.80;99.90
15700;DHT22;7950;42.744;23.174;2023-02-01T15:43:49;4.70;99.90
15700;DHT22;7950;42.744;23.174;2023-02-01T15:46:36;4.70;99.90
15700;DHT22;7950;42.744;23.174;2023-02-01T15:49:20;4.60;99.90
15700;DHT22;7950;42.744;23.174;2023-02-01T15:51:54;4.60;99.90
15700;DHT22;7950;42.744;23.174;2023-02-01T15:54:27;4.50;99.90
15700;DHT22;7950;42.744;23.174;2023-02-01T15:57:01;4.40;99.90
15700;DHT22;7950;42.744;23.174;2023-02-01T15:59:35;4.30;99.90
15700;DHT22;7950;42.744;23.174;2023-02-01T16:02:26;4.30;99.90
15700;DHT22;7950;42.744;23.174;2023-02-01T16:05:05;4.20;99.90
15700;DHT22;7950;42.744;23.174;2023-02-01T16:07:56;4.10;99.90
15700;DHT22;7950;42.744;23.174;2023-02-01T16:10:32;4.10;99.90
15700;DHT22;7950;42.744;23.174;2023-02-01T16:13:08;4.10;99.90
15700;DHT22;7950;42.744;23.174;2023-02-01T16:15:38;4.00;99.90
15700;DHT22;7950;42.744;23.174;2023-02-01T16:18:08;4.00;99.90
15700;DHT22;7950;42.744;23.174;2023-02-01T16:21:03;3.90;99.90
15700;DHT22;7950;42.744;23.174;2023-02-01T16:23:31;3.80;99.90
15700;DHT22;7950;42.744;23.174;2023-02-01T16:26:00;3.80;99.90
15700;DHT22;7950;42.744;23.174;2023-02-01T16:28:30;3.80;99.90
15700;DHT22;7950;42.744;23.174;2023-02-01T16:30:59;3.70;99.90
15700;DHT22;7950;42.744;23.174;2023-02-01T16:33:28;3.70;99.90
15700;DHT22;7950;42.744;23.174;2023-02-01T16:35:57;3.60;99.90
15700;DHT22;7950;42.744;23.174;2023-02-01T16:38:29;3.60;99.90
15700;DHT22;7950;42.744;23.174;2023-02-01T16:40:57;3.50;99.90
15700;DHT22;7950;42.744;23.174;2023-02-01T16:43:53;3.50;99.90
15700;DHT22;7950;42.744;23.174;2023-02-01T16:46:24;3.50;99.90
15700;DHT22;7950;42.744;23.174;2023-02-01T16:48:56;3.40;99.90
15700;DHT22;7950;42.744;23.174;2023-02-01T16:51:40;3.40;99.90
15700;DHT22;7950;42.744;23.174;2023-02-01T16:54:09;3.40;99.90
15700;DHT22;7950;42.744;23.174;2023-02-01T16:56:39;3.30;99.90
15700;DHT22;7950;42.744;23.174;2023-02-01T16:59:12;3.30;99.90
15700;DHT22;7950;42.744;23.174;2023-02-01T17:02:00;3.40;99.90
15700;DHT22;7950;42.744;23.174;2023-02-01T17:04:28;3.40;99.90
15700;DHT22;7950;42.744;23.174;2023-02-01T17:06:57;3.40;99.90
15700;DHT22;7950;42.744;23.174;2023-02-01T17:09:27;3.40;99.90